createdAt,value
2023-03-13T00:00:07.937Z,1.10
2023-03-13T00:00:39.325Z,1.20
2023-03-13T00:01:16.069Z,1.55
2023-03-13T00:01:48.549Z,2.20
2023-03-13T00:02:19.941Z,1.48
2023-03-13T00:02:51.324Z,1.23
2023-03-13T00:03:22.999Z,1.65
2023-03-13T00:03:54.637Z,1.48
2023-03-13T00:04:25.998Z,1.17
2023-03-13T00:04:57.399Z,1.80
2023-03-13T00:05:28.758Z,1.20
2023-03-13T00:06:00.096Z,1.15
2023-03-13T00:06:35.756Z,1.30
2023-03-13T00:07:07.162Z,1.37
2023-03-13T00:07:38.507Z,1.23
2023-03-13T00:08:09.920Z,1.27
2023-03-13T00:08:41.496Z,1.35
2023-03-13T00:09:14.170Z,1.23
2023-03-13T00:09:45.525Z,1.23
2023-03-13T00:10:16.934Z,1.35
2023-03-13T00:10:48.269Z,1.15
2023-03-13T00:11:19.611Z,0.75
2023-03-13T00:11:50.979Z,1.30
2023-03-13T00:12:22.389Z,1.30
2023-03-13T00:12:53.711Z,0.80
2023-03-13T00:13:25.088Z,1.10
2023-03-13T00:13:57.429Z,1.23
2023-03-13T00:14:28.945Z,1.40
2023-03-13T00:15:00.328Z,1.15
2023-03-13T00:15:31.808Z,1.10
2023-03-13T00:16:07.903Z,1.55
2023-03-13T00:16:39.275Z,1.25
2023-03-13T00:17:10.741Z,1.30
2023-03-13T00:17:42.118Z,0.97
2023-03-13T00:18:13.639Z,1.10
2023-03-13T00:18:49.272Z,1.40
2023-03-13T00:19:20.621Z,0.93
2023-03-13T00:19:51.983Z,1.20
2023-03-13T00:20:23.349Z,1.10
2023-03-13T00:20:58.831Z,1.15
2023-03-13T00:21:30.643Z,1.02
2023-03-13T00:22:02.000Z,1.02
2023-03-13T00:22:33.346Z,1.10
2023-03-13T00:23:04.713Z,1.35
2023-03-13T00:23:37.600Z,0.77
2023-03-13T00:24:10.354Z,1.00
2023-03-13T00:24:41.722Z,1.10
2023-03-13T00:25:13.138Z,1.35
2023-03-13T00:25:44.487Z,0.82
2023-03-13T00:26:17.376Z,1.02
2023-03-13T00:26:48.741Z,1.02
2023-03-13T00:27:20.140Z,1.25
2023-03-13T00:27:51.473Z,1.08
2023-03-13T00:28:22.832Z,1.23
2023-03-13T00:28:54.246Z,1.67
2023-03-13T00:29:25.586Z,1.50
2023-03-13T00:29:56.930Z,1.70
2023-03-13T00:30:28.392Z,1.20
2023-03-13T00:31:04.076Z,1.17
2023-03-13T00:31:35.558Z,1.00
2023-03-13T00:32:07.067Z,1.13
2023-03-13T00:32:42.232Z,1.33
2023-03-13T00:33:13.618Z,1.95
2023-03-13T00:33:48.994Z,1.20
2023-03-13T00:34:20.397Z,1.30
2023-03-13T00:34:51.748Z,1.10
2023-03-13T00:35:23.133Z,1.30
2023-03-13T00:35:58.188Z,1.67
2023-03-13T00:36:31.282Z,1.48
2023-03-13T00:37:02.665Z,1.45
2023-03-13T00:37:34.056Z,1.27
2023-03-13T00:38:05.402Z,0.85
2023-03-13T00:38:36.988Z,1.10
2023-03-13T00:39:08.469Z,1.23
2023-03-13T00:39:39.799Z,1.40
2023-03-13T00:40:11.498Z,1.10
2023-03-13T00:40:42.914Z,1.90
2023-03-13T00:41:21.506Z,2.03
2023-03-13T00:41:52.855Z,1.35
2023-03-13T00:42:24.212Z,1.27
2023-03-13T00:42:55.555Z,1.05
2023-03-13T00:43:27.078Z,1.02
2023-03-13T00:43:58.656Z,0.90
2023-03-13T00:44:30.184Z,1.05
2023-03-13T00:45:01.625Z,1.30
2023-03-13T00:45:33.009Z,1.15
2023-03-13T00:46:04.569Z,0.95
2023-03-13T00:46:36.324Z,1.10
2023-03-13T00:47:07.686Z,0.80
2023-03-13T00:47:39.056Z,0.80
2023-03-13T00:48:10.463Z,1.20
2023-03-13T00:48:41.920Z,0.70
2023-03-13T00:49:13.307Z,0.80
2023-03-13T00:49:44.653Z,0.77
2023-03-13T00:50:16.085Z,1.27
2023-03-13T00:50:47.511Z,0.60
2023-03-13T00:51:19.570Z,0.70
2023-03-13T00:51:51.101Z,0.95
2023-03-13T00:52:22.444Z,0.70
2023-03-13T00:52:53.876Z,0.80
2023-03-13T00:53:25.247Z,1.02
2023-03-13T00:53:57.258Z,1.23
2023-03-13T00:54:28.584Z,1.60
2023-03-13T00:54:59.937Z,1.30
2023-03-13T00:55:31.281Z,1.08
2023-03-13T00:56:07.232Z,1.17
2023-03-13T00:56:38.617Z,1.13
2023-03-13T00:57:09.968Z,0.90
2023-03-13T00:57:41.339Z,1.10
2023-03-13T00:58:12.740Z,1.10
2023-03-13T00:58:44.810Z,0.95
2023-03-13T00:59:16.199Z,1.45
2023-03-13T00:59:47.557Z,1.50
2023-03-13T01:00:19.194Z,1.05
2023-03-13T01:00:50.876Z,1.05
2023-03-13T01:01:22.186Z,1.02
2023-03-13T01:01:53.535Z,0.95
2023-03-13T01:02:25.012Z,1.35
2023-03-13T01:02:56.490Z,2.15
2023-03-13T01:03:27.979Z,1.10
2023-03-13T01:04:00.820Z,1.70
2023-03-13T01:04:32.217Z,1.45
2023-03-13T01:05:03.656Z,2.00
2023-03-13T01:05:35.008Z,1.45
2023-03-13T01:06:07.374Z,1.48
2023-03-13T01:06:39.876Z,1.40
2023-03-13T01:07:11.219Z,1.20
2023-03-13T01:07:42.549Z,1.55
2023-03-13T01:08:13.875Z,1.70
2023-03-13T01:08:45.277Z,1.35
2023-03-13T01:09:16.984Z,1.00
2023-03-13T01:09:48.309Z,1.17
2023-03-13T01:10:19.669Z,1.13
2023-03-13T01:10:51.114Z,1.38
2023-03-13T01:11:24.152Z,1.33
2023-03-13T01:11:55.463Z,1.55
2023-03-13T01:12:26.794Z,1.27
2023-03-13T01:12:58.170Z,1.00
2023-03-13T01:13:30.040Z,1.40
2023-03-13T01:14:04.940Z,0.80
2023-03-13T01:14:36.267Z,1.50
2023-03-13T01:15:07.885Z,1.50
2023-03-13T01:15:39.308Z,1.40
2023-03-13T01:16:12.373Z,1.08
2023-03-13T01:16:43.758Z,1.00
2023-03-13T01:17:15.103Z,1.77
2023-03-13T01:17:46.475Z,1.30
2023-03-13T01:18:17.822Z,1.60
2023-03-13T01:18:53.569Z,0.90
2023-03-13T01:19:24.916Z,1.60
2023-03-13T01:19:56.725Z,1.20
2023-03-13T01:20:29.165Z,1.27
2023-03-13T01:21:00.571Z,0.80
2023-03-13T01:21:32.018Z,0.93
2023-03-13T01:22:03.344Z,1.20
2023-03-13T01:22:34.680Z,1.00
2023-03-13T01:23:06.038Z,1.30
2023-03-13T01:23:40.415Z,0.90
2023-03-13T01:24:11.936Z,1.27
2023-03-13T01:24:43.281Z,2.00
2023-03-13T01:25:14.600Z,1.27
2023-03-13T01:25:45.979Z,1.17
2023-03-13T01:26:17.429Z,1.33
2023-03-13T01:26:48.776Z,0.43
2023-03-13T01:27:20.103Z,1.25
2023-03-13T01:27:51.448Z,1.30
2023-03-13T01:28:23.488Z,1.20
2023-03-13T01:28:55.237Z,0.95
2023-03-13T01:29:26.598Z,1.25
2023-03-13T01:29:57.946Z,1.25
2023-03-13T01:30:29.281Z,1.15
2023-03-13T01:31:01.339Z,1.10
2023-03-13T01:31:33.667Z,1.20
2023-03-13T01:32:05.278Z,1.15
2023-03-13T01:32:36.798Z,1.70
2023-03-13T01:33:08.206Z,2.47
2023-03-13T01:33:39.643Z,1.48
2023-03-13T01:34:11.385Z,1.73
2023-03-13T01:34:42.928Z,0.98
2023-03-13T01:35:14.336Z,1.58
2023-03-13T01:35:45.944Z,1.98
2023-03-13T01:36:17.871Z,1.88
2023-03-13T01:36:49.194Z,1.40
2023-03-13T01:37:20.558Z,1.60
2023-03-13T01:37:51.917Z,1.90
2023-03-13T01:38:23.238Z,1.92
2023-03-13T01:38:56.518Z,1.67
2023-03-13T01:39:27.926Z,1.27
2023-03-13T01:39:59.275Z,1.88
2023-03-13T01:40:30.705Z,1.75
2023-03-13T01:41:02.557Z,1.85
2023-03-13T01:41:33.964Z,1.70
2023-03-13T01:42:05.536Z,2.05
2023-03-13T01:42:53.146Z,1.90
2023-03-13T01:43:27.344Z,1.77
2023-03-13T01:43:59.769Z,2.05
2023-03-13T01:44:49.322Z,2.15
2023-03-13T01:45:39.208Z,2.53
2023-03-13T01:46:11.955Z,2.35
2023-03-13T01:46:43.437Z,2.22
2023-03-13T01:47:14.964Z,1.40
2023-03-13T01:47:48.133Z,1.60
2023-03-13T01:48:21.306Z,2.47
2023-03-13T01:48:58.957Z,1.80
2023-03-13T01:49:31.690Z,1.92
2023-03-13T01:50:03.093Z,2.00
2023-03-13T01:50:34.467Z,2.50
2023-03-13T01:51:08.400Z,1.60
2023-03-13T01:51:42.188Z,1.40
2023-03-13T01:52:15.672Z,1.40
2023-03-13T01:52:47.115Z,1.63
2023-03-13T01:53:18.497Z,1.30
2023-03-13T01:53:53.539Z,1.13
2023-03-13T01:54:28.789Z,1.63
2023-03-13T01:55:05.530Z,1.20
2023-03-13T01:55:36.866Z,1.40
2023-03-13T01:56:11.282Z,1.00
2023-03-13T01:56:51.347Z,1.37
2023-03-13T01:57:25.803Z,1.30
2023-03-13T01:57:57.274Z,1.20
2023-03-13T01:58:29.514Z,1.00
2023-03-13T01:59:01.660Z,1.05
2023-03-13T01:59:39.069Z,0.90
2023-03-13T02:00:12.859Z,1.00
2023-03-13T02:00:44.925Z,0.90
2023-03-13T02:01:17.327Z,1.13
2023-03-13T02:01:49.626Z,0.82
2023-03-13T02:02:21.697Z,1.33
2023-03-13T02:02:55.952Z,0.95
2023-03-13T02:03:28.292Z,0.70
2023-03-13T02:03:59.784Z,1.30
2023-03-13T02:04:33.589Z,0.70
2023-03-13T02:05:06.553Z,0.98
2023-03-13T02:05:38.713Z,1.05
2023-03-13T02:06:10.322Z,1.07
2023-03-13T02:06:42.732Z,1.08
2023-03-13T02:07:40.270Z,1.02
2023-03-13T02:08:18.202Z,1.30
2023-03-13T02:09:09.800Z,0.95
2023-03-13T02:09:42.126Z,1.35
2023-03-13T02:10:14.438Z,1.48
2023-03-13T02:10:56.283Z,2.20
2023-03-13T02:11:31.534Z,1.30
2023-03-13T02:12:17.456Z,1.10
2023-03-13T02:12:49.537Z,1.35
2023-03-13T02:13:21.317Z,1.25
2023-03-13T02:13:53.581Z,1.27
2023-03-13T02:14:27.151Z,1.37
2023-03-13T02:14:59.701Z,0.90
2023-03-13T02:15:31.320Z,1.02
2023-03-13T02:16:02.894Z,1.00
2023-03-13T02:16:35.052Z,1.10
2023-03-13T02:17:07.106Z,0.80
2023-03-13T02:17:39.430Z,1.13
2023-03-13T02:18:11.075Z,1.50
2023-03-13T02:18:42.889Z,0.95
2023-03-13T02:19:34.481Z,1.40
2023-03-13T02:20:06.112Z,1.63
2023-03-13T02:20:39.064Z,1.15
2023-03-13T02:21:22.320Z,1.00
2023-03-13T02:21:59.134Z,1.23
2023-03-13T02:22:49.535Z,1.45
2023-03-13T02:23:36.490Z,1.40
2023-03-13T02:24:23.790Z,1.45
2023-03-13T02:25:13.841Z,1.40
2023-03-13T02:25:52.064Z,1.58
2023-03-13T02:26:23.426Z,1.88
2023-03-13T02:26:54.940Z,1.25
2023-03-13T02:27:26.402Z,1.70
2023-03-13T02:28:00.439Z,2.00
2023-03-13T02:28:32.918Z,1.15
2023-03-13T02:29:04.544Z,1.58
2023-03-13T02:29:35.921Z,1.30
2023-03-13T02:30:08.882Z,1.40
2023-03-13T02:30:41.928Z,1.70
2023-03-13T02:31:13.315Z,1.92
2023-03-13T02:31:45.888Z,1.20
2023-03-13T02:32:17.601Z,1.50
2023-03-13T02:32:49.379Z,1.33
2023-03-13T02:33:21.341Z,1.42
2023-03-13T02:33:53.168Z,1.15
2023-03-13T02:34:27.883Z,1.42
2023-03-13T02:35:02.616Z,1.95
2023-03-13T02:35:34.517Z,1.33
2023-03-13T02:36:07.019Z,1.58
2023-03-13T02:36:38.494Z,1.77
2023-03-13T02:37:10.066Z,1.05
2023-03-13T02:37:42.871Z,1.15
2023-03-13T02:38:16.522Z,1.52
2023-03-13T02:38:56.579Z,1.38
2023-03-13T02:39:28.440Z,1.23
2023-03-13T02:40:01.412Z,1.40
2023-03-13T02:40:35.057Z,1.10
2023-03-13T02:41:06.641Z,1.07
2023-03-13T02:41:38.639Z,1.33
2023-03-13T02:42:10.122Z,1.25
2023-03-13T02:42:43.354Z,1.20
2023-03-13T02:43:16.461Z,1.25
2023-03-13T02:43:47.880Z,1.55
2023-03-13T02:44:19.238Z,1.00
2023-03-13T02:44:50.620Z,1.10
2023-03-13T02:45:21.997Z,1.33
2023-03-13T02:46:02.574Z,1.23
2023-03-13T02:46:43.886Z,1.15
2023-03-13T02:47:19.760Z,1.20
2023-03-13T02:47:51.122Z,1.30
2023-03-13T02:48:30.519Z,1.65
2023-03-13T02:49:16.855Z,1.23
2023-03-13T02:49:48.355Z,1.17
2023-03-13T02:50:20.557Z,1.13
2023-03-13T02:50:51.891Z,1.40
2023-03-13T02:51:31.695Z,1.30
2023-03-13T02:52:18.100Z,1.70
2023-03-13T02:52:53.027Z,1.17
2023-03-13T02:53:24.521Z,1.00
2023-03-13T02:53:58.725Z,1.00
2023-03-13T02:54:34.655Z,1.20
2023-03-13T02:55:07.851Z,0.67
2023-03-13T02:55:40.650Z,1.23
2023-03-13T02:56:12.875Z,1.55
2023-03-13T02:56:45.480Z,1.25
2023-03-13T02:57:16.840Z,0.98
2023-03-13T02:57:48.392Z,0.88
2023-03-13T02:58:19.731Z,1.60
2023-03-13T02:58:51.112Z,0.90
2023-03-13T02:59:22.749Z,1.02
2023-03-13T02:59:54.084Z,1.05
2023-03-13T03:00:25.472Z,1.08
2023-03-13T03:00:56.857Z,1.17
2023-03-13T03:01:28.234Z,0.95
2023-03-13T03:01:59.619Z,1.23
2023-03-13T03:02:31.038Z,1.27
2023-03-13T03:03:02.454Z,0.85
2023-03-13T03:03:34.921Z,1.05
2023-03-13T03:04:06.400Z,1.27
2023-03-13T03:04:37.864Z,0.90
2023-03-13T03:05:09.759Z,1.10
2023-03-13T03:05:41.241Z,1.00
2023-03-13T03:06:12.585Z,1.38
2023-03-13T03:06:43.938Z,1.20
2023-03-13T03:07:15.310Z,1.10
2023-03-13T03:07:46.728Z,0.68
2023-03-13T03:08:18.076Z,1.10
2023-03-13T03:08:49.478Z,1.33
2023-03-13T03:09:21.463Z,0.83
2023-03-13T03:09:52.804Z,0.90
2023-03-13T03:10:24.145Z,1.02
2023-03-13T03:10:55.507Z,1.25
2023-03-13T03:11:26.819Z,1.15
2023-03-13T03:11:58.172Z,1.70
2023-03-13T03:12:29.562Z,1.42
2023-03-13T03:13:00.925Z,1.25
2023-03-13T03:13:32.312Z,1.35
2023-03-13T03:14:03.637Z,1.52
2023-03-13T03:14:35.032Z,1.40
2023-03-13T03:15:06.658Z,0.93
2023-03-13T03:15:37.980Z,1.27
2023-03-13T03:16:13.808Z,1.90
2023-03-13T03:16:45.263Z,1.20
2023-03-13T03:17:16.612Z,1.13
2023-03-13T03:17:47.961Z,1.50
2023-03-13T03:18:19.379Z,1.02
2023-03-13T03:18:50.704Z,1.05
2023-03-13T03:19:22.058Z,1.17
2023-03-13T03:19:53.381Z,1.05
2023-03-13T03:20:24.701Z,1.63
2023-03-13T03:20:56.032Z,1.27
2023-03-13T03:21:27.354Z,1.60
2023-03-13T03:21:58.700Z,1.30
2023-03-13T03:22:30.037Z,1.47
2023-03-13T03:23:01.390Z,1.50
2023-03-13T03:23:33.341Z,1.77
2023-03-13T03:24:05.053Z,1.42
2023-03-13T03:24:36.448Z,1.30
2023-03-13T03:25:08.291Z,1.15
2023-03-13T03:25:39.663Z,1.50
2023-03-13T03:26:11.082Z,1.00
2023-03-13T03:26:42.565Z,2.40
2023-03-13T03:27:13.919Z,1.40
2023-03-13T03:27:48.124Z,0.70
2023-03-13T03:28:19.451Z,1.10
2023-03-13T03:28:50.979Z,1.25
2023-03-13T03:29:22.357Z,1.53
2023-03-13T03:29:53.707Z,0.98
2023-03-13T03:30:25.091Z,1.23
2023-03-13T03:30:56.555Z,1.17
2023-03-13T03:31:27.973Z,1.23
2023-03-13T03:31:59.430Z,1.20
2023-03-13T03:32:30.855Z,1.10
2023-03-13T03:33:02.668Z,1.30
2023-03-13T03:33:34.086Z,1.40
2023-03-13T03:34:05.474Z,1.05
2023-03-13T03:34:36.857Z,0.90
2023-03-13T03:35:08.338Z,1.25
2023-03-13T03:35:39.758Z,1.35
2023-03-13T03:36:12.595Z,1.30
2023-03-13T03:36:44.008Z,1.10
2023-03-13T03:37:15.350Z,1.20
2023-03-13T03:37:46.701Z,1.10
2023-03-13T03:38:18.050Z,2.72
2023-03-13T03:38:49.710Z,1.30
2023-03-13T03:39:21.104Z,1.20
2023-03-13T03:39:52.507Z,0.80
2023-03-13T03:40:23.879Z,1.23
2023-03-13T03:40:55.346Z,0.98
2023-03-13T03:41:26.618Z,1.50
2023-03-13T03:41:58.001Z,1.35
2023-03-13T03:42:29.350Z,1.75
2023-03-13T03:43:00.705Z,1.20
2023-03-13T03:43:32.259Z,1.63
2023-03-13T03:44:04.385Z,1.20
2023-03-13T03:44:35.744Z,1.40
2023-03-13T03:45:07.347Z,1.67
2023-03-13T03:45:38.722Z,1.75
2023-03-13T03:46:10.213Z,2.05
2023-03-13T03:46:41.658Z,1.80
2023-03-13T03:47:13.225Z,1.38
2023-03-13T03:47:44.575Z,1.70
2023-03-13T03:48:15.935Z,1.98
2023-03-13T03:48:47.276Z,1.85
2023-03-13T03:49:18.770Z,2.28
2023-03-13T03:49:50.136Z,1.90
2023-03-13T03:50:21.483Z,1.60
2023-03-13T03:50:52.844Z,2.22
2023-03-13T03:51:24.194Z,1.70
2023-03-13T03:51:55.545Z,2.53
2023-03-13T03:52:26.982Z,2.10
2023-03-13T03:52:58.332Z,1.17
2023-03-13T03:53:29.751Z,1.60
2023-03-13T03:54:01.098Z,1.42
2023-03-13T03:54:32.476Z,1.52
2023-03-13T03:55:03.996Z,1.38
2023-03-13T03:55:35.575Z,2.00
2023-03-13T03:56:07.033Z,2.00
2023-03-13T03:56:38.374Z,2.22
2023-03-13T03:57:09.729Z,2.03
2023-03-13T03:57:41.110Z,1.80
2023-03-13T03:58:12.458Z,1.80
2023-03-13T03:58:43.829Z,2.20
2023-03-13T03:59:15.161Z,2.60
2023-03-13T03:59:46.507Z,2.17
2023-03-13T04:00:17.882Z,2.72
2023-03-13T04:00:49.201Z,2.50
2023-03-13T04:01:20.552Z,2.53
2023-03-13T04:01:51.938Z,2.10
2023-03-13T04:02:23.384Z,2.38
2023-03-13T04:02:54.966Z,2.00
2023-03-13T04:03:26.618Z,2.90
2023-03-13T04:03:57.968Z,2.78
2023-03-13T04:04:29.307Z,2.05
2023-03-13T04:05:00.683Z,1.75
2023-03-13T04:05:32.124Z,1.40
2023-03-13T04:06:03.624Z,1.85
2023-03-13T04:06:34.975Z,2.63
2023-03-13T04:07:06.324Z,2.20
2023-03-13T04:07:37.688Z,1.75
2023-03-13T04:08:09.129Z,2.03
2023-03-13T04:08:40.475Z,1.70
2023-03-13T04:09:11.839Z,2.15
2023-03-13T04:09:43.204Z,3.03
2023-03-13T04:10:14.592Z,2.20
2023-03-13T04:10:46.000Z,1.40
2023-03-13T04:11:17.352Z,2.00
2023-03-13T04:11:48.697Z,2.33
2023-03-13T04:12:20.022Z,1.63
2023-03-13T04:12:51.412Z,2.30
2023-03-13T04:13:22.785Z,2.35
2023-03-13T04:13:54.178Z,2.33
2023-03-13T04:14:25.530Z,2.33
2023-03-13T04:14:56.892Z,1.73
2023-03-13T04:15:28.269Z,1.83
2023-03-13T04:15:59.587Z,2.30
2023-03-13T04:16:30.971Z,2.53
2023-03-13T04:17:02.369Z,2.67
2023-03-13T04:17:33.781Z,1.98
2023-03-13T04:18:05.158Z,1.90
2023-03-13T04:18:36.541Z,1.70
2023-03-13T04:19:07.894Z,2.05
2023-03-13T04:19:39.259Z,2.35
2023-03-13T04:20:11.158Z,1.77
2023-03-13T04:20:42.728Z,1.92
2023-03-13T04:21:14.133Z,1.73
2023-03-13T04:21:45.538Z,1.80
2023-03-13T04:22:17.102Z,1.98
2023-03-13T04:22:48.490Z,1.85
2023-03-13T04:23:19.896Z,1.40
2023-03-13T04:23:51.243Z,1.85
2023-03-13T04:24:22.621Z,1.77
2023-03-13T04:24:53.965Z,1.70
2023-03-13T04:25:25.344Z,2.50
2023-03-13T04:25:56.755Z,2.30
2023-03-13T04:26:28.103Z,2.05
2023-03-13T04:26:59.553Z,2.30
2023-03-13T04:27:32.080Z,1.55
2023-03-13T04:28:03.864Z,1.88
2023-03-13T04:28:35.181Z,2.08
2023-03-13T04:29:06.522Z,1.92
2023-03-13T04:29:37.909Z,1.65
2023-03-13T04:30:09.626Z,1.50
2023-03-13T04:30:41.117Z,1.27
2023-03-13T04:31:12.649Z,1.67
2023-03-13T04:31:44.051Z,1.75
2023-03-13T04:32:15.369Z,2.15
2023-03-13T04:32:46.815Z,1.58
2023-03-13T04:33:18.271Z,1.70
2023-03-13T04:33:49.735Z,1.60
2023-03-13T04:34:21.083Z,1.75
2023-03-13T04:34:52.799Z,1.70
2023-03-13T04:35:24.229Z,1.65
2023-03-13T04:35:55.678Z,1.27
2023-03-13T04:36:27.106Z,1.85
2023-03-13T04:36:58.502Z,1.85
2023-03-13T04:37:29.836Z,1.50
2023-03-13T04:38:01.196Z,1.80
2023-03-13T04:38:32.589Z,1.75
2023-03-13T04:39:04.009Z,1.92
2023-03-13T04:39:35.345Z,1.75
2023-03-13T04:40:07.009Z,1.85
2023-03-13T04:40:38.362Z,2.00
2023-03-13T04:41:09.724Z,2.50
2023-03-13T04:41:41.075Z,1.70
2023-03-13T04:42:12.754Z,1.88
2023-03-13T04:42:44.117Z,1.45
2023-03-13T04:43:15.474Z,2.03
2023-03-13T04:43:46.851Z,2.47
2023-03-13T04:44:18.197Z,1.65
2023-03-13T04:44:49.538Z,2.15
2023-03-13T04:45:20.874Z,2.08
2023-03-13T04:45:52.736Z,1.67
2023-03-13T04:46:24.181Z,1.85
2023-03-13T04:46:55.537Z,2.08
2023-03-13T04:47:26.921Z,2.10
2023-03-13T04:47:58.298Z,2.13
2023-03-13T04:48:29.633Z,1.30
2023-03-13T04:49:01.026Z,2.30
2023-03-13T04:49:32.378Z,2.25
2023-03-13T04:50:03.907Z,1.95
2023-03-13T04:50:35.294Z,2.53
2023-03-13T04:51:06.678Z,1.90
2023-03-13T04:51:38.042Z,3.03
2023-03-13T04:52:09.415Z,2.15
2023-03-13T04:52:40.843Z,2.28
2023-03-13T04:53:12.207Z,2.10
2023-03-13T04:53:43.618Z,2.50
2023-03-13T04:54:14.957Z,2.35
2023-03-13T04:54:46.293Z,2.22
2023-03-13T04:55:17.644Z,3.47
2023-03-13T04:55:50.083Z,2.13
2023-03-13T04:56:32.457Z,1.52
2023-03-13T04:57:12.806Z,2.47
2023-03-13T04:57:44.152Z,2.10
2023-03-13T04:58:15.538Z,3.00
2023-03-13T04:58:47.124Z,5.63
2023-03-13T04:59:18.576Z,18.00
2023-03-13T04:59:49.896Z,8.98
2023-03-13T05:00:21.372Z,4.22
2023-03-13T05:00:53.455Z,2.95
2023-03-13T05:01:24.830Z,2.53
2023-03-13T05:01:56.212Z,1.85
2023-03-13T05:02:27.532Z,1.83
2023-03-13T05:02:58.991Z,2.35
2023-03-13T05:03:30.379Z,1.77
2023-03-13T05:04:01.696Z,1.50
2023-03-13T05:04:33.109Z,1.60
2023-03-13T05:05:04.800Z,1.23
2023-03-13T05:05:36.212Z,1.17
2023-03-13T05:06:07.628Z,1.50
2023-03-13T05:06:39.354Z,1.77
2023-03-13T05:07:10.685Z,1.67
2023-03-13T05:07:42.020Z,1.43
2023-03-13T05:08:13.337Z,1.27
2023-03-13T05:08:44.714Z,1.42
2023-03-13T05:09:16.060Z,1.42
2023-03-13T05:09:47.397Z,1.92
2023-03-13T05:10:18.844Z,1.60
2023-03-13T05:10:50.222Z,1.40
2023-03-13T05:11:21.573Z,1.70
2023-03-13T05:11:52.932Z,1.50
2023-03-13T05:12:24.286Z,1.00
2023-03-13T05:12:55.608Z,1.45
2023-03-13T05:13:26.921Z,1.10
2023-03-13T05:13:58.267Z,1.40
2023-03-13T05:14:29.652Z,1.60
2023-03-13T05:15:01.100Z,1.27
2023-03-13T05:15:32.518Z,1.15
2023-03-13T05:16:04.007Z,1.30
2023-03-13T05:16:35.464Z,1.60
2023-03-13T05:17:06.851Z,2.00
2023-03-13T05:17:38.174Z,1.50
2023-03-13T05:18:09.496Z,1.73
2023-03-13T05:18:40.896Z,2.40
2023-03-13T05:19:12.475Z,1.42
2023-03-13T05:19:43.801Z,1.30
2023-03-13T05:20:15.272Z,1.42
2023-03-13T05:20:46.633Z,1.20
2023-03-13T05:21:17.997Z,1.25
2023-03-13T05:21:49.347Z,1.25
2023-03-13T05:22:20.700Z,1.73
2023-03-13T05:22:52.053Z,1.52
2023-03-13T05:23:23.454Z,1.70
2023-03-13T05:23:54.797Z,2.10
2023-03-13T05:24:26.121Z,1.65
2023-03-13T05:24:57.465Z,1.30
2023-03-13T05:25:28.817Z,1.85
2023-03-13T05:26:00.276Z,1.63
2023-03-13T05:26:31.801Z,1.75
2023-03-13T05:27:03.396Z,1.80
2023-03-13T05:27:34.743Z,2.08
2023-03-13T05:28:06.115Z,1.77
2023-03-13T05:28:37.468Z,2.30
2023-03-13T05:29:08.881Z,1.98
2023-03-13T05:29:40.278Z,2.00
2023-03-13T05:30:11.887Z,1.50
2023-03-13T05:30:43.264Z,2.42
2023-03-13T05:31:14.696Z,2.20
2023-03-13T05:31:46.080Z,2.10
2023-03-13T05:32:17.434Z,2.50
2023-03-13T05:32:48.798Z,2.28
2023-03-13T05:33:20.232Z,1.90
2023-03-13T05:33:51.597Z,1.58
2023-03-13T05:34:22.948Z,1.88
2023-03-13T05:34:54.469Z,2.10
2023-03-13T05:35:25.898Z,1.90
2023-03-13T05:35:57.375Z,2.17
2023-03-13T05:36:28.929Z,2.47
2023-03-13T05:37:00.409Z,1.75
2023-03-13T05:37:31.831Z,1.75
2023-03-13T05:38:03.248Z,2.05
2023-03-13T05:38:34.549Z,1.50
2023-03-13T05:39:05.882Z,2.20
2023-03-13T05:39:37.204Z,1.43
2023-03-13T05:40:09.322Z,1.67
2023-03-13T05:40:40.802Z,1.65
2023-03-13T05:41:12.157Z,1.60
2023-03-13T05:41:43.576Z,1.88
2023-03-13T05:42:14.939Z,2.03
2023-03-13T05:42:46.305Z,1.60
2023-03-13T05:43:17.674Z,1.63
2023-03-13T05:43:49.013Z,1.75
2023-03-13T05:44:20.354Z,1.98
2023-03-13T05:44:51.699Z,1.90
2023-03-13T05:45:23.043Z,2.33
2023-03-13T05:45:54.414Z,2.20
2023-03-13T05:46:25.837Z,1.88
2023-03-13T05:46:57.228Z,1.80
2023-03-13T05:47:28.580Z,1.73
2023-03-13T05:47:59.932Z,2.40
2023-03-13T05:48:31.281Z,1.95
2023-03-13T05:49:02.639Z,1.88
2023-03-13T05:49:34.011Z,1.70
2023-03-13T05:50:06.184Z,1.65
2023-03-13T05:50:37.525Z,1.67
2023-03-13T05:51:08.873Z,1.30
2023-03-13T05:51:40.221Z,1.48
2023-03-13T05:52:12.238Z,1.67
2023-03-13T05:52:43.611Z,1.55
2023-03-13T05:53:14.977Z,2.00
2023-03-13T05:53:46.414Z,1.80
2023-03-13T05:54:17.742Z,1.80
2023-03-13T05:54:49.054Z,1.85
2023-03-13T05:55:20.383Z,1.63
2023-03-13T05:55:51.718Z,1.52
2023-03-13T05:56:23.057Z,1.55
2023-03-13T05:56:54.478Z,2.10
2023-03-13T05:57:25.934Z,2.25
2023-03-13T05:57:57.310Z,2.60
2023-03-13T05:58:28.637Z,1.67
2023-03-13T05:58:59.982Z,1.73
2023-03-13T05:59:31.312Z,1.30
2023-03-13T06:00:03.662Z,2.00
2023-03-13T06:00:35.014Z,1.95
2023-03-13T06:01:10.220Z,1.27
2023-03-13T06:01:41.729Z,1.80
2023-03-13T06:02:13.070Z,2.40
2023-03-13T06:02:44.575Z,1.83
2023-03-13T06:03:15.908Z,2.08
2023-03-13T06:03:47.402Z,1.98
2023-03-13T06:04:19.054Z,1.60
2023-03-13T06:04:50.652Z,1.83
2023-03-13T06:05:22.091Z,2.10
2023-03-13T06:05:57.413Z,1.30
2023-03-13T06:06:28.758Z,1.80
2023-03-13T06:07:00.239Z,1.80
2023-03-13T06:07:31.694Z,1.95
2023-03-13T06:08:03.117Z,2.22
2023-03-13T06:08:34.484Z,2.05
2023-03-13T06:09:05.850Z,4.10
2023-03-13T06:09:37.271Z,5.28
2023-03-13T06:10:08.969Z,4.10
2023-03-13T06:10:40.316Z,3.47
2023-03-13T06:11:11.673Z,2.70
2023-03-13T06:11:43.023Z,2.30
2023-03-13T06:12:14.342Z,3.03
2023-03-13T06:12:51.770Z,3.60
2023-03-13T06:13:23.165Z,2.90
2023-03-13T06:13:54.579Z,2.20
2023-03-13T06:14:26.010Z,2.25
2023-03-13T06:14:57.396Z,2.33
2023-03-13T06:15:28.736Z,1.83
2023-03-13T06:16:00.222Z,2.28
2023-03-13T06:16:31.674Z,1.58
2023-03-13T06:17:03.161Z,2.05
2023-03-13T06:17:34.503Z,2.45
2023-03-13T06:18:05.913Z,2.30
2023-03-13T06:18:37.310Z,1.95
2023-03-13T06:19:08.843Z,2.07
2023-03-13T06:19:40.177Z,2.55
2023-03-13T06:20:11.919Z,3.03
2023-03-13T06:20:43.296Z,2.40
2023-03-13T06:21:14.782Z,2.97
2023-03-13T06:21:46.131Z,3.42
2023-03-13T06:22:17.792Z,2.97
2023-03-13T06:22:49.195Z,2.55
2023-03-13T06:23:20.544Z,2.47
2023-03-13T06:23:51.930Z,2.53
2023-03-13T06:24:23.465Z,3.05
2023-03-13T06:24:54.803Z,2.50
2023-03-13T06:25:26.141Z,2.40
2023-03-13T06:25:57.473Z,2.20
2023-03-13T06:26:28.831Z,2.20
2023-03-13T06:27:00.183Z,2.20
2023-03-13T06:27:31.564Z,2.40
2023-03-13T06:28:02.927Z,2.17
2023-03-13T06:28:34.297Z,2.47
2023-03-13T06:29:05.659Z,1.75
2023-03-13T06:29:37.026Z,2.00
2023-03-13T06:30:09.600Z,1.85
2023-03-13T06:30:40.948Z,2.00
2023-03-13T06:31:12.363Z,2.10
2023-03-13T06:31:43.947Z,1.85
2023-03-13T06:32:15.487Z,2.63
2023-03-13T06:32:46.953Z,2.58
2023-03-13T06:33:18.588Z,2.90
2023-03-13T06:33:53.289Z,2.63
2023-03-13T06:34:24.682Z,2.33
2023-03-13T06:34:55.993Z,2.60
2023-03-13T06:35:27.337Z,2.17
2023-03-13T06:36:00.020Z,2.67
2023-03-13T06:36:31.450Z,2.15
2023-03-13T06:37:02.933Z,2.10
2023-03-13T06:37:34.326Z,2.00
2023-03-13T06:38:05.687Z,2.63
2023-03-13T06:38:37.092Z,2.45
2023-03-13T06:39:08.973Z,2.33
2023-03-13T06:39:40.418Z,2.25
2023-03-13T06:40:11.981Z,2.10
2023-03-13T06:40:43.306Z,2.00
2023-03-13T06:41:14.911Z,2.13
2023-03-13T06:41:46.257Z,1.65
2023-03-13T06:42:17.640Z,2.45
2023-03-13T06:42:48.984Z,2.47
2023-03-13T06:43:20.344Z,1.92
2023-03-13T06:43:51.685Z,4.28
2023-03-13T06:44:23.040Z,4.95
2023-03-13T06:44:54.406Z,2.10
2023-03-13T06:45:25.769Z,2.40
2023-03-13T06:45:57.587Z,1.98
2023-03-13T06:46:29.018Z,2.03
2023-03-13T06:47:00.486Z,2.00
2023-03-13T06:47:33.845Z,2.23
2023-03-13T06:48:05.227Z,1.98
2023-03-13T06:48:36.586Z,2.28
2023-03-13T06:49:08.070Z,2.03
2023-03-13T06:49:39.409Z,2.20
2023-03-13T06:50:11.069Z,2.00
2023-03-13T06:50:42.833Z,2.10
2023-03-13T06:51:14.943Z,2.60
2023-03-13T06:51:46.318Z,1.83
2023-03-13T06:52:19.340Z,2.10
2023-03-13T06:52:51.367Z,2.13
2023-03-13T06:53:22.732Z,1.75
2023-03-13T06:53:54.079Z,1.35
2023-03-13T06:54:25.588Z,1.50
2023-03-13T06:54:56.927Z,2.05
2023-03-13T06:55:28.295Z,1.80
2023-03-13T06:56:00.886Z,1.83
2023-03-13T06:56:32.257Z,1.63
2023-03-13T06:57:03.633Z,1.48
2023-03-13T06:57:35.124Z,1.77
2023-03-13T06:58:06.501Z,1.90
2023-03-13T06:58:37.821Z,1.80
2023-03-13T06:59:09.245Z,1.50
2023-03-13T06:59:40.564Z,2.17
2023-03-13T07:00:12.386Z,2.33
2023-03-13T07:00:43.822Z,2.15
2023-03-13T07:01:16.289Z,2.00
2023-03-13T07:01:47.677Z,1.60
2023-03-13T07:02:19.046Z,1.65
2023-03-13T07:02:50.864Z,1.48
2023-03-13T07:03:22.297Z,1.92
2023-03-13T07:03:53.743Z,1.83
2023-03-13T07:04:25.092Z,2.08
2023-03-13T07:04:56.430Z,1.58
2023-03-13T07:05:27.762Z,1.83
2023-03-13T07:05:59.699Z,1.80
2023-03-13T07:06:31.064Z,2.50
2023-03-13T07:07:02.437Z,1.73
2023-03-13T07:07:33.992Z,2.03
2023-03-13T07:08:05.435Z,1.50